createdAt,value
2022-11-09T00:00:57.727Z,15.68
2022-11-09T00:03:27.055Z,15.62
2022-11-09T00:05:58.132Z,15.53
2022-11-09T00:08:26.015Z,15.45
2022-11-09T00:10:54.323Z,15.39
2022-11-09T00:13:22.781Z,15.40
2022-11-09T00:15:51.007Z,15.42
2022-11-09T00:18:18.838Z,15.46
2022-11-09T00:20:48.620Z,15.49
2022-11-09T00:23:17.208Z,15.53
2022-11-09T00:25:45.480Z,15.58
2022-11-09T00:28:13.427Z,15.62
2022-11-09T00:30:41.416Z,15.66
2022-11-09T00:33:11.180Z,15.70
2022-11-09T00:35:39.432Z,15.73
2022-11-09T00:38:08.804Z,15.76
2022-11-09T00:40:36.746Z,15.73
2022-11-09T00:43:04.658Z,15.70
2022-11-09T00:45:32.540Z,15.76
2022-11-09T00:48:00.390Z,15.81
2022-11-09T00:50:28.357Z,15.81
2022-11-09T00:52:56.288Z,15.80
2022-11-09T00:55:25.579Z,15.77
2022-11-09T00:57:53.512Z,15.78
2022-11-09T01:00:23.455Z,15.74
2022-11-09T01:02:51.467Z,15.83
2022-11-09T01:05:19.561Z,15.87
2022-11-09T01:07:47.448Z,15.84
2022-11-09T01:10:15.355Z,15.77
2022-11-09T01:12:44.643Z,15.68
2022-11-09T01:15:12.614Z,15.70
2022-11-09T01:17:40.654Z,15.69
2022-11-09T01:20:09.204Z,15.58
2022-11-09T01:22:37.101Z,15.50
2022-11-09T01:25:05.455Z,15.42
2022-11-09T01:27:33.594Z,15.30
2022-11-09T01:30:02.899Z,15.26
2022-11-09T01:32:32.902Z,15.16
2022-11-09T01:35:00.806Z,15.18
2022-11-09T01:37:28.687Z,15.12
2022-11-09T01:39:56.538Z,15.12
2022-11-09T01:42:25.234Z,15.09
2022-11-09T01:45:22.994Z,15.06
2022-11-09T01:47:52.407Z,15.04
2022-11-09T01:50:22.860Z,15.00
2022-11-09T01:52:50.735Z,14.97
2022-11-09T01:55:21.591Z,14.98
2022-11-09T01:57:51.496Z,14.97
2022-11-09T02:00:19.431Z,14.97
2022-11-09T02:02:51.103Z,14.91
2022-11-09T02:05:20.341Z,14.93
2022-11-09T02:07:48.201Z,14.94
2022-11-09T02:10:18.854Z,14.96
2022-11-09T02:12:46.875Z,15.02
2022-11-09T02:15:14.748Z,15.02
2022-11-09T02:17:42.738Z,15.09
2022-11-09T02:20:13.249Z,15.12
2022-11-09T02:22:41.638Z,15.14
2022-11-09T02:25:10.298Z,15.18
2022-11-09T02:27:38.168Z,15.16
2022-11-09T02:30:06.910Z,15.17
2022-11-09T02:32:34.775Z,15.16
2022-11-09T02:35:02.654Z,15.17
2022-11-09T02:37:32.716Z,15.18
2022-11-09T02:40:00.635Z,14.99
2022-11-09T02:42:28.522Z,15.18
2022-11-09T02:44:57.849Z,15.17
2022-11-09T02:47:25.820Z,15.16
2022-11-09T02:49:53.707Z,15.14
2022-11-09T02:52:21.582Z,15.11
2022-11-09T02:54:50.824Z,15.11
2022-11-09T02:57:18.781Z,15.11
2022-11-09T02:59:46.664Z,15.08
2022-11-09T03:02:14.563Z,15.05
2022-11-09T03:04:42.527Z,15.03
2022-11-09T03:07:10.725Z,14.98
2022-11-09T03:09:38.614Z,15.04
2022-11-09T03:12:21.992Z,15.05
2022-11-09T03:14:49.854Z,15.08
2022-11-09T03:17:18.495Z,15.09
2022-11-09T03:19:46.439Z,15.08
2022-11-09T03:22:14.321Z,15.12
2022-11-09T03:24:42.241Z,15.12
2022-11-09T03:27:11.610Z,15.16
2022-11-09T03:29:39.559Z,15.17
2022-11-09T03:32:07.493Z,15.17
2022-11-09T03:34:35.447Z,15.21
2022-11-09T03:37:03.380Z,15.23
2022-11-09T03:39:31.261Z,15.18
2022-11-09T03:41:59.150Z,15.12
2022-11-09T03:44:28.397Z,15.00
2022-11-09T03:46:56.252Z,14.95
2022-11-09T03:49:25.031Z,14.93
2022-11-09T03:51:52.936Z,14.90
2022-11-09T03:54:20.813Z,14.90
2022-11-09T03:56:48.744Z,14.95
2022-11-09T03:59:16.631Z,14.99
2022-11-09T04:01:46.016Z,15.00
2022-11-09T04:04:13.928Z,15.04
2022-11-09T04:06:41.922Z,15.09
2022-11-09T04:09:11.038Z,15.10
2022-11-09T04:11:38.908Z,15.07
2022-11-09T04:14:06.839Z,15.03
2022-11-09T04:16:34.727Z,15.02
2022-11-09T04:19:03.969Z,15.01
2022-11-09T04:21:33.506Z,15.03
2022-11-09T04:24:01.516Z,15.09
2022-11-09T04:26:29.431Z,15.15
2022-11-09T04:28:57.339Z,15.23
2022-11-09T04:31:28.019Z,15.29
2022-11-09T04:33:56.255Z,15.33
2022-11-09T04:36:25.589Z,15.36
2022-11-09T04:38:53.499Z,15.42
2022-11-09T04:41:21.398Z,15.47
2022-11-09T04:43:49.324Z,15.52
2022-11-09T04:46:17.240Z,15.56
2022-11-09T04:48:45.090Z,15.59
2022-11-09T04:51:13.040Z,15.61
2022-11-09T04:53:42.288Z,15.61
2022-11-09T04:56:10.239Z,15.62
2022-11-09T04:58:38.161Z,15.61
2022-11-09T05:01:06.394Z,15.59
2022-11-09T05:03:34.411Z,15.60
2022-11-09T05:06:22.392Z,15.61
2022-11-09T05:08:51.648Z,15.68
2022-11-09T05:11:19.526Z,15.71
2022-11-09T05:13:47.471Z,15.67
2022-11-09T05:16:17.505Z,15.61
2022-11-09T05:18:45.420Z,15.59
2022-11-09T05:21:13.348Z,15.55
2022-11-09T05:23:58.430Z,15.48
2022-11-09T05:26:28.765Z,15.42
2022-11-09T05:28:57.604Z,15.40
2022-11-09T05:31:25.498Z,15.30
2022-11-09T05:33:53.554Z,15.37
2022-11-09T05:36:21.570Z,15.34
2022-11-09T05:38:49.453Z,15.37
2022-11-09T05:41:17.397Z,15.35
2022-11-09T05:43:46.767Z,15.48
2022-11-09T05:46:14.731Z,15.52
2022-11-09T05:48:42.899Z,15.60
2022-11-09T05:51:11.862Z,15.67
2022-11-09T05:53:43.663Z,15.68
2022-11-09T05:56:14.257Z,15.75
2022-11-09T05:58:42.255Z,15.91
2022-11-09T06:01:12.405Z,15.91
2022-11-09T06:03:40.459Z,16.00
2022-11-09T06:06:09.257Z,16.08
2022-11-09T06:08:37.250Z,16.19
2022-11-09T06:11:06.296Z,16.23
2022-11-09T06:13:34.239Z,16.26
2022-11-09T06:16:03.271Z,16.28
2022-11-09T06:18:33.216Z,16.19
2022-11-09T06:21:03.041Z,16.24
2022-11-09T06:23:32.619Z,16.25
2022-11-09T06:26:01.042Z,16.21
2022-11-09T06:28:29.046Z,16.12
2022-11-09T06:30:58.486Z,16.05
2022-11-09T06:33:26.485Z,16.04
2022-11-09T06:35:56.640Z,16.02
2022-11-09T06:38:26.482Z,15.99
2022-11-09T06:40:54.514Z,15.85
2022-11-09T06:43:22.860Z,15.99
2022-11-09T06:45:51.036Z,15.96
2022-11-09T06:48:18.953Z,15.87
2022-11-09T06:50:46.872Z,15.79
2022-11-09T06:53:16.921Z,15.69
2022-11-09T06:55:50.299Z,15.66
2022-11-09T06:58:19.702Z,15.41
2022-11-09T07:00:48.185Z,15.58
2022-11-09T07:03:16.168Z,15.55
2022-11-09T07:05:44.254Z,15.56
2022-11-09T07:08:12.228Z,15.55
2022-11-09T07:10:41.498Z,15.60
2022-11-09T07:13:09.736Z,15.67
2022-11-09T07:15:38.059Z,15.70
2022-11-09T07:18:06.916Z,15.81
2022-11-09T07:20:34.812Z,15.94
2022-11-09T07:23:02.814Z,15.86
2022-11-09T07:25:30.748Z,15.65
2022-11-09T07:28:05.107Z,15.48
2022-11-09T07:30:32.997Z,15.33
2022-11-09T07:33:20.861Z,15.24
2022-11-09T07:35:48.883Z,15.15
2022-11-09T07:38:16.973Z,15.08
2022-11-09T07:40:45.107Z,15.03
2022-11-09T07:43:14.463Z,14.77
2022-11-09T07:45:42.537Z,14.98
2022-11-09T07:48:11.398Z,15.05
2022-11-09T07:50:39.842Z,15.16
2022-11-09T07:53:08.245Z,15.20
2022-11-09T07:55:36.197Z,15.28
2022-11-09T07:58:05.605Z,15.39
2022-11-09T08:00:35.690Z,15.51
2022-11-09T08:03:03.915Z,15.57
2022-11-09T08:05:31.834Z,15.62
2022-11-09T08:08:00.181Z,15.56
2022-11-09T08:10:28.675Z,15.67
2022-11-09T08:12:57.535Z,15.70
2022-11-09T08:15:25.565Z,15.70
2022-11-09T08:17:54.914Z,15.74
2022-11-09T08:20:22.842Z,15.76
2022-11-09T08:22:50.913Z,15.85
2022-11-09T08:25:18.887Z,15.92
2022-11-09T08:27:46.862Z,15.97
2022-11-09T08:30:17.871Z,16.03
2022-11-09T08:32:45.789Z,16.10
2022-11-09T08:35:17.878Z,16.23
2022-11-09T08:37:46.930Z,16.29
2022-11-09T08:40:15.806Z,16.42
2022-11-09T08:42:43.757Z,16.55
2022-11-09T08:45:12.270Z,16.57
2022-11-09T08:47:40.222Z,16.69
2022-11-09T08:50:08.440Z,16.78
2022-11-09T08:52:37.683Z,16.84
2022-11-09T08:55:06.732Z,16.90
2022-11-09T08:57:34.638Z,16.96
2022-11-09T09:00:02.567Z,16.97
2022-11-09T09:02:30.431Z,16.99
2022-11-09T09:04:58.350Z,16.99
2022-11-09T09:07:26.309Z,16.98
2022-11-09T09:09:55.617Z,16.95
2022-11-09T09:12:23.774Z,17.00
2022-11-09T09:14:51.697Z,17.09
2022-11-09T09:17:19.739Z,17.19
2022-11-09T09:19:50.112Z,17.25
2022-11-09T09:22:18.173Z,17.33
2022-11-09T09:24:46.085Z,17.40
2022-11-09T09:27:15.332Z,17.38
2022-11-09T09:29:43.253Z,17.09
2022-11-09T09:32:11.198Z,16.75
2022-11-09T09:34:39.091Z,16.49
2022-11-09T09:37:07.047Z,16.31
2022-11-09T09:39:34.986Z,16.26
2022-11-09T09:42:04.167Z,16.37
2022-11-09T09:44:35.716Z,16.61
2022-11-09T09:47:08.494Z,16.95
2022-11-09T09:49:38.331Z,17.09
2022-11-09T09:52:10.888Z,17.01
2022-11-09T09:54:41.037Z,16.79
2022-11-09T09:57:13.066Z,16.31
2022-11-09T09:59:43.887Z,16.18
2022-11-09T10:02:17.047Z,16.03
2022-11-09T10:04:45.078Z,16.02
2022-11-09T10:07:14.687Z,16.06
2022-11-09T10:09:57.469Z,16.09
2022-11-09T10:12:38.674Z,16.09
2022-11-09T10:15:15.718Z,16.16
2022-11-09T10:17:50.240Z,16.28
2022-11-09T10:20:29.284Z,16.51
2022-11-09T10:23:03.982Z,16.73
2022-11-09T10:25:50.746Z,16.93
2022-11-09T10:28:20.779Z,17.12
2022-11-09T10:30:50.392Z,17.14
2022-11-09T10:33:21.300Z,17.28
2022-11-09T10:35:52.034Z,17.40
2022-11-09T10:38:23.015Z,17.46
2022-11-09T10:40:54.159Z,17.75
2022-11-09T10:43:22.119Z,17.50
2022-11-09T10:46:00.920Z,17.76
2022-11-09T10:48:32.579Z,18.16
2022-11-09T10:51:00.445Z,18.50
2022-11-09T10:53:29.125Z,18.35
2022-11-09T10:55:57.791Z,18.34
2022-11-09T10:58:32.421Z,17.87
2022-11-09T11:01:06.142Z,17.47
2022-11-09T11:03:36.525Z,17.62
2022-11-09T11:06:05.569Z,17.90
2022-11-09T11:08:39.239Z,18.09
2022-11-09T11:11:36.414Z,18.00
2022-11-09T11:14:17.141Z,17.46
2022-11-09T11:16:53.063Z,17.45
2022-11-09T11:19:28.643Z,17.90
2022-11-09T11:22:22.885Z,18.44
2022-11-09T11:24:58.176Z,18.80
2022-11-09T11:27:30.061Z,19.12
2022-11-09T11:30:03.099Z,19.36
2022-11-09T11:32:32.355Z,19.47
2022-11-09T11:35:01.574Z,19.52
2022-11-09T11:37:37.870Z,19.58
2022-11-09T11:40:07.271Z,19.86
2022-11-09T11:43:01.494Z,20.21
2022-11-09T11:45:41.610Z,20.17
2022-11-09T11:48:45.521Z,20.29
2022-11-09T11:51:15.878Z,20.05
2022-11-09T11:53:53.030Z,19.93
2022-11-09T11:56:23.949Z,19.54
2022-11-09T11:59:01.344Z,19.65
2022-11-09T12:01:45.145Z,19.41
2022-11-09T12:04:35.690Z,19.64
2022-11-09T12:07:11.523Z,20.01
2022-11-09T12:09:56.218Z,20.01
2022-11-09T12:12:29.446Z,20.04
2022-11-09T12:15:04.745Z,20.14
2022-11-09T12:17:39.856Z,20.51
2022-11-09T12:20:19.851Z,20.91
2022-11-09T12:22:54.151Z,21.33
2022-11-09T12:25:24.234Z,21.53
2022-11-09T12:28:04.429Z,21.54
2022-11-09T12:30:41.053Z,21.32
2022-11-09T12:33:10.295Z,21.18
2022-11-09T12:35:42.179Z,21.10
2022-11-09T12:38:12.681Z,20.96
2022-11-09T12:40:41.367Z,20.40
2022-11-09T12:43:16.970Z,20.15
2022-11-09T12:45:44.946Z,20.19
2022-11-09T12:48:16.661Z,20.32
2022-11-09T12:50:45.992Z,20.39
2022-11-09T12:53:13.867Z,20.37
2022-11-09T12:55:45.025Z,20.03
2022-11-09T12:58:23.547Z,19.77
2022-11-09T13:00:56.352Z,19.58
2022-11-09T13:03:26.444Z,19.54
2022-11-09T13:06:12.892Z,19.23
2022-11-09T13:08:41.104Z,18.58
2022-11-09T13:11:10.208Z,18.45
2022-11-09T13:13:38.111Z,19.03
2022-11-09T13:16:08.351Z,19.42
2022-11-09T13:18:51.465Z,19.58
2022-11-09T13:21:42.764Z,19.47
2022-11-09T13:24:53.509Z,18.56
2022-11-09T13:27:41.110Z,18.82
2022-11-09T13:30:40.004Z,19.15
2022-11-09T13:33:18.983Z,19.20
2022-11-09T13:36:01.422Z,19.33
2022-11-09T13:38:31.451Z,19.48
2022-11-09T13:40:59.416Z,19.72
2022-11-09T13:43:28.164Z,19.90
2022-11-09T13:45:56.925Z,19.89
2022-11-09T13:48:42.574Z,19.50
2022-11-09T13:51:12.044Z,19.38
2022-11-09T13:53:57.673Z,19.64
2022-11-09T13:56:33.211Z,19.93
2022-11-09T13:59:04.784Z,20.09
2022-11-09T14:01:37.928Z,20.25
2022-11-09T14:04:06.506Z,20.50
2022-11-09T14:06:34.481Z,20.54
2022-11-09T14:09:03.887Z,20.21
2022-11-09T14:11:56.020Z,19.60
2022-11-09T14:14:51.701Z,18.91
2022-11-09T14:17:21.493Z,18.51
2022-11-09T14:19:54.062Z,18.57
2022-11-09T14:22:21.943Z,18.74
2022-11-09T14:24:51.189Z,18.02
2022-11-09T14:27:20.451Z,18.32
2022-11-09T14:29:50.690Z,18.75
2022-11-09T14:32:30.198Z,18.99
2022-11-09T14:35:12.150Z,19.25
2022-11-09T14:37:44.581Z,19.65
2022-11-09T14:40:19.528Z,19.86
2022-11-09T14:42:49.424Z,20.02
2022-11-09T14:45:17.516Z,20.19
2022-11-09T14:47:46.326Z,20.25
2022-11-09T14:50:17.030Z,20.19
2022-11-09T14:52:44.885Z,20.17
2022-11-09T14:55:14.762Z,20.09
2022-11-09T14:57:44.073Z,19.94
2022-11-09T15:00:29.940Z,19.62
2022-11-09T15:02:57.981Z,19.29
2022-11-09T15:05:31.555Z,19.01
2022-11-09T15:07:59.645Z,18.82
2022-11-09T15:10:29.705Z,18.78
2022-11-09T15:13:01.338Z,18.71
2022-11-09T15:15:30.049Z,18.70
2022-11-09T15:17:57.993Z,18.57
2022-11-09T15:20:28.523Z,18.49
2022-11-09T15:22:57.605Z,18.42
2022-11-09T15:25:28.357Z,18.36
2022-11-09T15:28:05.989Z,18.26
2022-11-09T15:30:35.592Z,18.23
2022-11-09T15:33:14.117Z,18.18
2022-11-09T15:35:49.973Z,18.11
2022-11-09T15:38:35.517Z,18.07
2022-11-09T15:41:03.548Z,18.02
2022-11-09T15:43:32.867Z,18.03
2022-11-09T15:46:00.962Z,18.04
2022-11-09T15:48:29.305Z,18.15
2022-11-09T15:50:57.241Z,18.19
2022-11-09T15:53:25.164Z,18.19
2022-11-09T15:55:53.085Z,18.06
2022-11-09T15:58:24.235Z,18.04
2022-11-09T16:00:53.766Z,17.97
2022-11-09T16:03:21.766Z,17.94
2022-11-09T16:05:49.697Z,17.92
2022-11-09T16:08:17.983Z,17.99
2022-11-09T16:10:46.324Z,17.97
2022-11-09T16:13:14.381Z,17.94
2022-11-09T16:15:42.337Z,17.93
2022-11-09T16:18:11.604Z,17.94
2022-11-09T16:20:41.318Z,17.82
2022-11-09T16:23:09.592Z,17.82
2022-11-09T16:25:37.869Z,17.72
2022-11-09T16:28:05.951Z,17.63
2022-11-09T16:30:34.002Z,17.54
2022-11-09T16:33:02.060Z,17.44
2022-11-09T16:35:31.373Z,17.42
2022-11-09T16:38:00.317Z,17.26
2022-11-09T16:40:29.071Z,17.31
2022-11-09T16:42:57.060Z,17.34
2022-11-09T16:45:29.161Z,17.30
2022-11-09T16:48:03.915Z,17.32
2022-11-09T16:50:33.204Z,17.26
2022-11-09T16:53:01.105Z,17.31
2022-11-09T16:55:29.060Z,17.33
2022-11-09T16:57:56.954Z,17.31
2022-11-09T17:00:37.455Z,17.31
2022-11-09T17:03:13.199Z,17.35
2022-11-09T17:05:42.544Z,17.34
2022-11-09T17:08:10.775Z,17.33
2022-11-09T17:10:41.736Z,17.32
2022-11-09T17:13:09.708Z,17.31
2022-11-09T17:15:41.471Z,17.30
2022-11-09T17:18:10.217Z,17.27
2022-11-09T17:20:44.136Z,17.26
2022-11-09T17:23:13.207Z,17.21
2022-11-09T17:25:42.920Z,17.22
2022-11-09T17:28:10.976Z,17.22
2022-11-09T17:30:41.018Z,17.28
2022-11-09T17:33:08.911Z,17.36
2022-11-09T17:35:36.884Z,17.30
2022-11-09T17:38:06.202Z,17.33
2022-11-09T17:40:34.068Z,17.29
2022-11-09T17:43:01.964Z,17.20
2022-11-09T17:45:30.059Z,17.15
2022-11-09T17:47:59.164Z,17.09
2022-11-09T17:50:27.161Z,17.05
2022-11-09T17:52:55.050Z,16.98
2022-11-09T17:55:24.416Z,16.96
2022-11-09T17:57:52.440Z,16.94
2022-11-09T18:00:20.897Z,16.94
2022-11-09T18:02:48.805Z,16.97
2022-11-09T18:05:16.932Z,16.96
2022-11-09T18:07:44.772Z,16.91
2022-11-09T18:10:12.782Z,16.96
2022-11-09T18:12:42.095Z,16.98
2022-11-09T18:15:10.891Z,17.01
2022-11-09T18:17:38.844Z,17.06
2022-11-09T18:20:07.392Z,17.12
2022-11-09T18:22:35.275Z,17.14
2022-11-09T18:25:03.191Z,17.16
2022-11-09T18:27:31.086Z,17.16
2022-11-09T18:30:02.332Z,17.14
2022-11-09T18:32:30.776Z,17.17
2022-11-09T18:35:04.857Z,17.14
2022-11-09T18:37:34.838Z,17.14
2022-11-09T18:40:02.757Z,17.14
2022-11-09T18:42:30.652Z,17.10
2022-11-09T18:45:00.124Z,17.08
2022-11-09T18:47:28.775Z,17.06
2022-11-09T18:49:56.641Z,17.05
2022-11-09T18:52:24.547Z,17.03
2022-11-09T18:54:52.468Z,17.03
2022-11-09T18:57:20.459Z,17.02
2022-11-09T18:59:48.439Z,17.06
2022-11-09T19:02:17.697Z,17.12
2022-11-09T19:04:46.095Z,17.20
2022-11-09T19:07:13.978Z,17.21
2022-11-09T19:09:42.329Z,17.23
2022-11-09T19:12:11.262Z,17.25
2022-11-09T19:14:40.953Z,17.24
2022-11-09T19:17:10.904Z,17.21
2022-11-09T19:19:40.261Z,17.25
2022-11-09T19:22:19.131Z,17.23
2022-11-09T19:24:47.128Z,17.19
2022-11-09T19:27:15.003Z,17.20
2022-11-09T19:29:42.911Z,17.20
2022-11-09T19:32:10.840Z,17.18
2022-11-09T19:34:42.592Z,17.24
2022-11-09T19:37:10.591Z,17.26
2022-11-09T19:39:43.135Z,17.23
2022-11-09T19:42:11.467Z,17.21
2022-11-09T19:44:39.301Z,17.25
2022-11-09T19:47:07.242Z,17.23
2022-11-09T19:49:35.148Z,17.20
2022-11-09T19:52:04.518Z,17.00
2022-11-09T19:54:32.450Z,17.28
2022-11-09T19:57:00.359Z,17.31
2022-11-09T19:59:28.261Z,17.39
2022-11-09T20:01:56.179Z,17.40
2022-11-09T20:04:24.054Z,17.40
2022-11-09T20:06:51.978Z,17.29
2022-11-09T20:09:21.297Z,17.29
2022-11-09T20:12:06.591Z,17.27
2022-11-09T20:14:34.510Z,17.20
2022-11-09T20:17:03.710Z,17.21
2022-11-09T20:19:32.073Z,17.20
2022-11-09T20:22:00.050Z,17.22
2022-11-09T20:24:29.307Z,17.21
2022-11-09T20:26:57.215Z,17.11
2022-11-09T20:29:25.147Z,17.17
2022-11-09T20:31:53.136Z,17.21
2022-11-09T20:34:21.066Z,17.27
2022-11-09T20:36:49.111Z,17.30
2022-11-09T20:39:17.054Z,17.33
2022-11-09T20:41:46.344Z,17.36
2022-11-09T20:44:14.528Z,17.40
2022-11-09T20:46:42.443Z,17.36
2022-11-09T20:49:10.633Z,17.35
2022-11-09T20:51:38.572Z,17.40
2022-11-09T20:54:07.745Z,17.39
2022-11-09T20:56:36.105Z,17.42
2022-11-09T20:59:05.501Z,17.44
2022-11-09T21:01:33.649Z,17.45
2022-11-09T21:04:01.677Z,17.48
2022-11-09T21:06:29.610Z,17.52
2022-11-09T21:08:58.277Z,17.56
2022-11-09T21:11:28.786Z,17.60
2022-11-09T21:13:56.852Z,17.55
2022-11-09T21:16:28.243Z,17.60
2022-11-09T21:18:56.133Z,17.55
2022-11-09T21:21:25.492Z,17.61
2022-11-09T21:24:22.333Z,17.58
2022-11-09T21:27:09.611Z,17.65
2022-11-09T21:29:51.393Z,17.70
2022-11-09T21:32:21.142Z,17.72
2022-11-09T21:34:49.025Z,17.73
2022-11-09T21:37:17.206Z,17.72
2022-11-09T21:39:45.171Z,17.67
2022-11-09T21:42:13.097Z,17.57
2022-11-09T21:44:41.008Z,17.61
2022-11-09T21:47:09.034Z,17.61
2022-11-09T21:49:38.475Z,17.58
2022-11-09T21:52:06.667Z,17.53
2022-11-09T21:54:34.618Z,17.49
2022-11-09T21:57:02.527Z,17.47
2022-11-09T21:59:30.456Z,17.43
2022-11-09T22:01:58.373Z,17.37
2022-11-09T22:04:26.370Z,17.36
2022-11-09T22:06:55.746Z,17.33
2022-11-09T22:09:23.611Z,17.31
2022-11-09T22:12:08.896Z,17.27
2022-11-09T22:14:54.232Z,17.16
2022-11-09T22:17:22.160Z,17.02
2022-11-09T22:20:07.440Z,17.03
2022-11-09T22:22:37.158Z,16.98
2022-11-09T22:25:05.804Z,16.97
2022-11-09T22:27:33.731Z,16.91
2022-11-09T22:30:01.638Z,16.89
2022-11-09T22:32:29.510Z,16.88
2022-11-09T22:34:57.379Z,16.89
2022-11-09T22:37:25.392Z,16.81
2022-11-09T22:39:54.641Z,16.78
2022-11-09T22:42:22.552Z,16.77
2022-11-09T22:44:50.543Z,16.76
2022-11-09T22:47:18.424Z,16.79
2022-11-09T22:49:46.307Z,16.79
2022-11-09T22:52:14.193Z,16.81
2022-11-09T22:54:42.056Z,16.82
2022-11-09T22:57:11.314Z,16.80
2022-11-09T22:59:39.251Z,16.76
2022-11-09T23:02:07.125Z,16.72
2022-11-09T23:04:35.019Z,16.66
2022-11-09T23:07:03.010Z,16.61
2022-11-09T23:09:30.948Z,16.57
2022-11-09T23:11:58.812Z,16.54
2022-11-09T23:14:41.917Z,16.51
2022-11-09T23:17:30.532Z,16.51
2022-11-09T23:19:57.441Z,16.48
2022-11-09T23:22:25.329Z,16.36
2022-11-09T23:25:10.856Z,16.45
2022-11-09T23:27:38.777Z,16.49
2022-11-09T23:30:08.815Z,16.54
2022-11-09T23:32:36.756Z,16.59
2022-11-09T23:35:04.882Z,16.66
2022-11-09T23:37:32.841Z,16.69
2022-11-09T23:40:00.777Z,16.74
2022-11-09T23:42:28.644Z,16.79
2022-11-09T23:44:56.563Z,16.82
2022-11-09T23:47:25.912Z,16.83
2022-11-09T23:49:53.786Z,16.86
2022-11-09T23:52:23.049Z,16.87
2022-11-09T23:54:50.937Z,16.90
2022-11-09T23:57:18.817Z,16.94
2022-11-09T23:59:46.700Z,16.96
